createdAt,value
2018-10-03T00:00:03.045Z,0
2018-10-03T00:05:03.432Z,2
2018-10-03T00:10:03.021Z,1
2018-10-03T00:15:02.768Z,2
2018-10-03T00:20:03.482Z,1
2018-10-03T00:25:03.122Z,3
2018-10-03T00:30:02.813Z,2
2018-10-03T00:35:03.427Z,0
2018-10-03T00:40:03.082Z,0
2018-10-03T00:45:02.707Z,0
2018-10-03T00:50:03.295Z,0
2018-10-03T00:55:02.868Z,0
2018-10-03T01:00:03.499Z,2
2018-10-03T01:05:03.144Z,2
2018-10-03T01:10:02.812Z,2
2018-10-03T01:15:03.434Z,3
2018-10-03T01:20:03.134Z,2
2018-10-03T01:25:02.683Z,1
2018-10-03T01:30:03.255Z,0
2018-10-03T01:35:02.902Z,1
2018-10-03T01:40:03.539Z,0
2018-10-03T01:45:03.109Z,0
2018-10-03T01:50:02.731Z,2
2018-10-03T01:55:03.344Z,1
2018-10-03T02:00:03.069Z,2
2018-10-03T02:05:02.634Z,2
2018-10-03T02:10:03.312Z,1
2018-10-03T02:15:02.904Z,1
2018-10-03T02:20:02.641Z,1
2018-10-03T02:25:03.222Z,1
2018-10-03T02:30:02.835Z,1
2018-10-03T02:35:03.432Z,1
2018-10-03T02:40:03.008Z,2
2018-10-03T02:45:02.686Z,2
2018-10-03T02:50:03.294Z,2
2018-10-03T02:55:02.860Z,2
2018-10-03T03:00:03.645Z,3
2018-10-03T03:05:03.213Z,2
2018-10-03T03:10:02.813Z,2
2018-10-03T03:15:03.371Z,1
2018-10-03T03:20:02.958Z,4
2018-10-03T03:25:03.457Z,2
2018-10-03T03:30:03.108Z,3
2018-10-03T03:35:02.688Z,4
2018-10-03T03:40:03.354Z,3
2018-10-03T03:45:02.931Z,5
2018-10-03T03:50:03.495Z,4
2018-10-03T03:55:03.039Z,2
2018-10-03T04:00:02.780Z,4
2018-10-03T04:05:03.410Z,3
2018-10-03T04:10:03.094Z,2
2018-10-03T04:15:02.775Z,2
2018-10-03T04:20:03.474Z,2
2018-10-03T04:25:03.087Z,4
2018-10-03T04:30:03.201Z,1
2018-10-03T04:35:02.717Z,2
2018-10-03T04:40:03.421Z,3
2018-10-03T04:45:02.956Z,3
2018-10-03T04:50:03.525Z,3
2018-10-03T04:55:03.175Z,1
2018-10-03T05:00:02.714Z,3
2018-10-03T05:05:03.424Z,3
2018-10-03T05:10:03.106Z,3
2018-10-03T05:15:02.769Z,2
2018-10-03T05:20:03.302Z,3
2018-10-03T05:25:02.867Z,3
2018-10-03T05:30:03.438Z,3
2018-10-03T05:35:03.018Z,4
2018-10-03T05:40:02.696Z,3
2018-10-03T05:45:03.267Z,4
2018-10-03T05:50:02.881Z,2
2018-10-03T05:55:03.493Z,3
2018-10-03T06:00:03.062Z,1
2018-10-03T06:05:02.720Z,2
2018-10-03T06:10:03.378Z,5
2018-10-03T06:15:02.964Z,5
2018-10-03T06:20:02.586Z,4
2018-10-03T06:25:03.193Z,4
2018-10-03T06:30:02.990Z,5
2018-10-03T06:35:02.729Z,3
2018-10-03T06:40:03.429Z,3
2018-10-03T06:45:03.019Z,6
2018-10-03T06:50:02.891Z,3
2018-10-03T06:55:03.588Z,6
2018-10-03T07:00:03.228Z,5
2018-10-03T07:05:02.850Z,5
2018-10-03T07:10:02.600Z,1
2018-10-03T07:15:03.249Z,6
2018-10-03T07:20:03.074Z,3
2018-10-03T07:25:02.744Z,4
2018-10-03T07:30:03.523Z,5
2018-10-03T07:35:03.223Z,6
2018-10-03T07:40:02.934Z,3
2018-10-03T07:45:02.665Z,6
2018-10-03T07:50:03.348Z,3
2018-10-03T07:55:02.941Z,6
2018-10-03T08:00:02.616Z,2
2018-10-03T08:05:03.199Z,6
2018-10-03T08:10:03.222Z,5
2018-10-03T08:15:03.165Z,5
2018-10-03T08:20:02.882Z,4
2018-10-03T08:25:02.896Z,5
2018-10-03T08:30:03.664Z,7
2018-10-03T08:35:03.527Z,4
2018-10-03T08:40:03.188Z,3
2018-10-03T08:45:02.814Z,2
2018-10-03T08:50:03.497Z,4
2018-10-03T08:55:03.055Z,2
2018-10-03T09:00:02.627Z,2
2018-10-03T09:05:03.374Z,2
2018-10-03T09:10:03.064Z,0
2018-10-03T09:15:02.608Z,1
2018-10-03T09:20:03.336Z,2
2018-10-03T09:25:02.926Z,2
2018-10-03T09:30:02.560Z,0
2018-10-03T09:35:03.305Z,0
2018-10-03T09:40:03.053Z,1
2018-10-03T09:45:02.648Z,2
2018-10-03T09:50:03.208Z,2
2018-10-03T09:55:02.769Z,7
2018-10-03T10:00:03.379Z,3
2018-10-03T10:05:02.967Z,3
2018-10-03T10:10:02.701Z,3
2018-10-03T10:15:03.327Z,2
2018-10-03T10:20:02.568Z,3
2018-10-03T10:25:02.936Z,2
2018-10-03T10:30:03.500Z,4
2018-10-03T10:35:03.114Z,4
2018-10-03T10:40:03.063Z,0
2018-10-03T10:45:02.812Z,2
2018-10-03T10:50:03.544Z,7
2018-10-03T10:55:03.263Z,3
2018-10-03T11:00:02.922Z,2
2018-10-03T11:05:02.493Z,2
2018-10-03T11:10:03.214Z,3
2018-10-03T11:15:02.802Z,2
2018-10-03T11:20:03.400Z,3
2018-10-03T11:25:03.621Z,2
2018-10-03T11:30:03.354Z,5
2018-10-03T11:35:03.021Z,6
2018-10-03T11:40:02.698Z,5
2018-10-03T11:45:03.592Z,4
2018-10-03T11:50:03.143Z,3
2018-10-03T11:55:02.792Z,2
2018-10-03T12:00:03.394Z,4
2018-10-03T12:05:03.001Z,2
2018-10-03T12:10:02.713Z,2
2018-10-03T12:15:03.250Z,0
2018-10-03T12:20:02.804Z,4
2018-10-03T12:25:03.756Z,3
2018-10-03T12:30:03.491Z,7
2018-10-03T12:35:03.069Z,4
2018-10-03T12:40:02.688Z,6
2018-10-03T12:45:03.643Z,6
2018-10-03T12:50:03.371Z,3
2018-10-03T12:55:03.020Z,2
2018-10-03T13:00:03.604Z,2
2018-10-03T13:05:03.215Z,2
2018-10-03T13:10:02.858Z,2
2018-10-03T13:15:03.413Z,1
2018-10-03T13:20:02.982Z,3
2018-10-03T13:25:02.652Z,2
2018-10-03T13:30:03.249Z,4
2018-10-03T13:35:02.788Z,5
2018-10-03T13:40:03.498Z,7
2018-10-03T13:45:03.043Z,7
2018-10-03T13:50:02.991Z,5
2018-10-03T13:55:02.647Z,5
2018-10-03T14:00:03.271Z,5
2018-10-03T14:05:02.872Z,4
2018-10-03T14:10:03.564Z,5
2018-10-03T14:15:03.135Z,8
2018-10-03T14:20:02.929Z,8
2018-10-03T14:25:02.569Z,5
2018-10-03T14:30:03.130Z,4
2018-10-03T14:35:02.667Z,7
2018-10-03T14:40:03.324Z,6
2018-10-03T14:45:02.957Z,5
2018-10-03T14:50:02.638Z,7
2018-10-03T14:55:03.326Z,7
2018-10-03T15:00:02.962Z,4
2018-10-03T15:05:02.656Z,7
2018-10-03T15:10:03.367Z,5
2018-10-03T15:15:02.961Z,5
2018-10-03T15:20:02.623Z,3
2018-10-03T15:25:03.120Z,7
2018-10-03T15:30:02.887Z,5
2018-10-03T15:35:02.689Z,5
2018-10-03T15:40:03.316Z,3
2018-10-03T15:45:02.898Z,5
2018-10-03T15:50:03.539Z,7
2018-10-03T15:55:03.404Z,5
2018-10-03T16:00:03.192Z,6
2018-10-03T16:05:02.866Z,7
2018-10-03T16:10:03.482Z,6
2018-10-03T16:15:03.046Z,6
2018-10-03T16:20:02.713Z,4
2018-10-03T16:25:03.327Z,3
2018-10-03T16:30:02.889Z,8
2018-10-03T16:35:03.498Z,6
2018-10-03T16:40:03.052Z,3
2018-10-03T16:45:02.682Z,5
2018-10-03T16:50:03.752Z,5
2018-10-03T16:55:02.728Z,3
2018-10-03T17:00:03.374Z,2
2018-10-03T17:05:02.998Z,4
2018-10-03T17:10:02.665Z,2
2018-10-03T17:15:03.322Z,2
2018-10-03T17:20:02.940Z,0
2018-10-03T17:25:02.637Z,0
2018-10-03T17:30:03.425Z,2
2018-10-03T17:35:03.112Z,0
2018-10-03T17:40:02.835Z,0
2018-10-03T17:45:03.569Z,0
2018-10-03T17:50:03.220Z,0
2018-10-03T17:55:02.845Z,0
2018-10-03T18:00:02.596Z,0
2018-10-03T18:05:04.007Z,1
2018-10-03T18:10:02.952Z,0
2018-10-03T18:15:03.488Z,2
2018-10-03T18:20:03.253Z,1
2018-10-03T18:25:02.853Z,0
2018-10-03T18:30:03.561Z,0
2018-10-03T18:35:03.286Z,0
2018-10-03T18:40:02.976Z,0
2018-10-03T18:45:02.987Z,0
2018-10-03T18:50:02.844Z,0
2018-10-03T18:55:03.528Z,0
2018-10-03T19:00:03.135Z,0
2018-10-03T19:10:02.795Z,0
2018-10-03T19:15:02.900Z,0
2018-10-03T19:20:03.426Z,0
2018-10-03T19:25:02.734Z,0
2018-10-03T19:30:02.923Z,0
2018-10-03T19:35:03.342Z,0
2018-10-03T19:40:03.212Z,0
2018-10-03T19:45:02.963Z,0
2018-10-03T19:50:02.638Z,0
2018-10-03T19:55:03.243Z,0
2018-10-03T20:00:02.779Z,0
2018-10-03T20:05:03.474Z,0
2018-10-03T20:10:03.069Z,0
2018-10-03T20:15:02.677Z,0
2018-10-03T20:20:03.349Z,0
2018-10-03T20:25:02.936Z,0
2018-10-03T20:30:03.681Z,0
2018-10-03T20:35:03.276Z,0
2018-10-03T20:40:02.879Z,0
2018-10-03T20:45:03.532Z,0
2018-10-03T20:50:03.103Z,0
2018-10-03T20:55:02.742Z,0
2018-10-03T21:00:03.368Z,0
2018-10-03T21:05:03.106Z,0
2018-10-03T21:10:02.753Z,0
2018-10-03T21:15:03.351Z,0
2018-10-03T21:20:02.943Z,0
2018-10-03T21:25:04.049Z,0
2018-10-03T21:30:03.293Z,1
2018-10-03T21:35:02.912Z,0
2018-10-03T21:40:03.493Z,0
2018-10-03T21:45:03.028Z,0
2018-10-03T21:50:02.738Z,0
2018-10-03T21:55:03.373Z,0
2018-10-03T22:00:02.948Z,0
2018-10-03T22:05:02.593Z,0
2018-10-03T22:10:03.157Z,2
2018-10-03T22:15:02.650Z,2
2018-10-03T22:20:03.221Z,0
2018-10-03T22:25:02.827Z,0
2018-10-03T22:30:03.313Z,1
2018-10-03T22:35:02.896Z,0
2018-10-03T22:40:03.523Z,1
2018-10-03T22:45:03.129Z,2
2018-10-03T22:50:02.834Z,0
2018-10-03T22:55:03.527Z,2
2018-10-03T23:00:03.142Z,0
2018-10-03T23:05:03.331Z,0
2018-10-03T23:10:02.964Z,0
2018-10-03T23:15:02.575Z,0
2018-10-03T23:20:03.145Z,0
2018-10-03T23:25:02.760Z,0
2018-10-03T23:30:03.375Z,0
2018-10-03T23:35:03.048Z,0
2018-10-03T23:40:02.712Z,0
2018-10-03T23:45:03.298Z,0
2018-10-03T23:50:02.962Z,0
2018-10-03T23:55:03.492Z,0
